sensor_id;sensor_type;location;lat;lon;timestamp;temperature;humidity
25949;DHT22;13961;51.178;4.448;2022-10-16T00:04:06;14.50;99.90
25949;DHT22;13961;51.178;4.448;2022-10-16T00:09:54;14.60;99.90
25949;DHT22;13961;51.178;4.448;2022-10-16T00:15:42;14.60;99.90
25949;DHT22;13961;51.178;4.448;2022-10-16T00:21:31;14.70;99.90
25949;DHT22;13961;51.178;4.448;2022-10-16T00:27:19;14.70;99.90
25949;DHT22;13961;51.178;4.448;2022-10-16T00:33:06;14.60;99.90
25949;DHT22;13961;51.178;4.448;2022-10-16T00:38:55;14.50;99.90
25949;DHT22;13961;51.178;4.448;2022-10-16T00:44:55;14.70;99.90
25949;DHT22;13961;51.178;4.448;2022-10-16T00:50:44;14.60;99.90
25949;DHT22;13961;51.178;4.448;2022-10-16T00:56:32;14.40;99.90
25949;DHT22;13961;51.178;4.448;2022-10-16T01:02:19;14.30;99.90
25949;DHT22;13961;51.178;4.448;2022-10-16T01:08:22;14.20;99.90
25949;DHT22;13961;51.178;4.448;2022-10-16T01:20:31;14.30;99.90
25949;DHT22;13961;51.178;4.448;2022-10-16T01:33:08;14.20;99.90
25949;DHT22;13961;51.178;4.448;2022-10-16T01:39:00;14.10;99.90
25949;DHT22;13961;51.178;4.448;2022-10-16T01:44:50;14.00;99.90
25949;DHT22;13961;51.178;4.448;2022-10-16T01:50:39;14.10;99.90
25949;DHT22;13961;51.178;4.448;2022-10-16T01:56:29;14.00;99.90
25949;DHT22;13961;51.178;4.448;2022-10-16T02:02:18;14.00;99.90
25949;DHT22;13961;51.178;4.448;2022-10-16T02:08:07;13.90;99.90
25949;DHT22;13961;51.178;4.448;2022-10-16T02:14:00;13.80;99.90
25949;DHT22;13961;51.178;4.448;2022-10-16T02:19:51;13.90;99.90
25949;DHT22;13961;51.178;4.448;2022-10-16T02:25:42;13.90;99.90
25949;DHT22;13961;51.178;4.448;2022-10-16T02:31:35;13.90;99.90
25949;DHT22;13961;51.178;4.448;2022-10-16T02:37:25;13.90;99.90
25949;DHT22;13961;51.178;4.448;2022-10-16T02:43:14;13.90;99.90
25949;DHT22;13961;51.178;4.448;2022-10-16T02:49:02;13.90;99.90
25949;DHT22;13961;51.178;4.448;2022-10-16T02:54:49;13.80;99.90
25949;DHT22;13961;51.178;4.448;2022-10-16T03:00:37;13.70;99.90
25949;DHT22;13961;51.178;4.448;2022-10-16T03:06:24;13.70;99.90
25949;DHT22;13961;51.178;4.448;2022-10-16T03:12:12;13.70;99.90
25949;DHT22;13961;51.178;4.448;2022-10-16T03:18:00;13.70;99.90
25949;DHT22;13961;51.178;4.448;2022-10-16T03:23:48;13.60;99.90
25949;DHT22;13961;51.178;4.448;2022-10-16T03:29:35;13.70;99.90
25949;DHT22;13961;51.178;4.448;2022-10-16T03:35:24;13.70;99.90
25949;DHT22;13961;51.178;4.448;2022-10-16T03:41:12;13.70;99.90
25949;DHT22;13961;51.178;4.448;2022-10-16T03:46:59;13.70;99.90
25949;DHT22;13961;51.178;4.448;2022-10-16T03:52:47;13.60;99.90
25949;DHT22;13961;51.178;4.448;2022-10-16T03:58:35;13.80;99.90
25949;DHT22;13961;51.178;4.448;2022-10-16T04:04:23;13.80;99.90
25949;DHT22;13961;51.178;4.448;2022-10-16T04:10:11;13.70;99.90
25949;DHT22;13961;51.178;4.448;2022-10-16T04:15:58;13.80;99.90
25949;DHT22;13961;51.178;4.448;2022-10-16T04:21:46;13.70;99.90
25949;DHT22;13961;51.178;4.448;2022-10-16T04:27:33;13.80;99.90
25949;DHT22;13961;51.178;4.448;2022-10-16T04:33:21;13.80;99.90
25949;DHT22;13961;51.178;4.448;2022-10-16T04:39:09;13.80;99.90
25949;DHT22;13961;51.178;4.448;2022-10-16T04:44:56;13.60;99.90
25949;DHT22;13961;51.178;4.448;2022-10-16T04:50:44;13.60;99.90
25949;DHT22;13961;51.178;4.448;2022-10-16T04:56:31;13.60;99.90
25949;DHT22;13961;51.178;4.448;2022-10-16T05:02:20;13.50;99.90
25949;DHT22;13961;51.178;4.448;2022-10-16T05:08:07;13.50;99.90
25949;DHT22;13961;51.178;4.448;2022-10-16T05:13:54;13.40;99.90
25949;DHT22;13961;51.178;4.448;2022-10-16T05:19:42;13.40;99.90
25949;DHT22;13961;51.178;4.448;2022-10-16T05:25:29;13.50;99.90
25949;DHT22;13961;51.178;4.448;2022-10-16T05:31:17;13.40;99.90
25949;DHT22;13961;51.178;4.448;2022-10-16T05:37:04;13.30;99.90
25949;DHT22;13961;51.178;4.448;2022-10-16T05:42:55;13.30;99.90
25949;DHT22;13961;51.178;4.448;2022-10-16T05:48:42;13.30;99.90
25949;DHT22;13961;51.178;4.448;2022-10-16T05:54:30;13.40;99.90
25949;DHT22;13961;51.178;4.448;2022-10-16T06:00:17;13.50;99.90
25949;DHT22;13961;51.178;4.448;2022-10-16T06:06:13;13.20;99.90
25949;DHT22;13961;51.178;4.448;2022-10-16T06:12:01;13.30;99.90
25949;DHT22;13961;51.178;4.448;2022-10-16T06:17:49;13.40;99.90
25949;DHT22;13961;51.178;4.448;2022-10-16T06:23:37;13.70;99.90
25949;DHT22;13961;51.178;4.448;2022-10-16T06:29:25;13.80;99.90
25949;DHT22;13961;51.178;4.448;2022-10-16T06:35:12;13.80;99.90
25949;DHT22;13961;51.178;4.448;2022-10-16T06:41:00;13.80;99.90
25949;DHT22;13961;51.178;4.448;2022-10-16T06:46:48;13.80;99.90
25949;DHT22;13961;51.178;4.448;2022-10-16T06:52:35;13.80;99.90
25949;DHT22;13961;51.178;4.448;2022-10-16T06:58:24;13.80;99.90
25949;DHT22;13961;51.178;4.448;2022-10-16T07:04:12;13.90;99.90
25949;DHT22;13961;51.178;4.448;2022-10-16T07:09:59;15.00;99.90
25949;DHT22;13961;51.178;4.448;2022-10-16T07:15:47;17.10;99.90
25949;DHT22;13961;51.178;4.448;2022-10-16T07:21:34;18.50;99.90
25949;DHT22;13961;51.178;4.448;2022-10-16T07:27:25;19.80;99.90
25949;DHT22;13961;51.178;4.448;2022-10-16T07:33:13;20.90;99.90
25949;DHT22;13961;51.178;4.448;2022-10-16T07:39:01;22.20;99.90
25949;DHT22;13961;51.178;4.448;2022-10-16T07:44:49;22.20;99.90
25949;DHT22;13961;51.178;4.448;2022-10-16T07:50:37;22.20;99.90
25949;DHT22;13961;51.178;4.448;2022-10-16T07:56:25;22.40;99.90
25949;DHT22;13961;51.178;4.448;2022-10-16T08:02:12;22.20;99.90
25949;DHT22;13961;51.178;4.448;2022-10-16T08:08:01;22.10;99.90
25949;DHT22;13961;51.178;4.448;2022-10-16T08:13:49;22.00;99.90
25949;DHT22;13961;51.178;4.448;2022-10-16T08:19:36;21.30;99.90
25949;DHT22;13961;51.178;4.448;2022-10-16T08:25:25;21.00;99.90
25949;DHT22;13961;51.178;4.448;2022-10-16T08:31:15;18.70;99.90
25949;DHT22;13961;51.178;4.448;2022-10-16T08:37:02;17.90;99.90
25949;DHT22;13961;51.178;4.448;2022-10-16T08:49:34;17.30;99.90
25949;DHT22;13961;51.178;4.448;2022-10-16T09:12:24;17.20;99.90
25949;DHT22;13961;51.178;4.448;2022-10-16T09:24:30;17.30;99.90
25949;DHT22;13961;51.178;4.448;2022-10-16T09:30:19;17.70;99.90
25949;DHT22;13961;51.178;4.448;2022-10-16T09:36:09;18.00;99.90
25949;DHT22;13961;51.178;4.448;2022-10-16T09:41:57;18.20;99.90
25949;DHT22;13961;51.178;4.448;2022-10-16T09:47:45;18.60;99.90
25949;DHT22;13961;51.178;4.448;2022-10-16T10:00:17;18.90;99.90
25949;DHT22;13961;51.178;4.448;2022-10-16T10:06:23;18.50;99.90
25949;DHT22;13961;51.178;4.448;2022-10-16T10:19:00;19.10;99.90
25949;DHT22;13961;51.178;4.448;2022-10-16T10:31:46;19.10;99.90
25949;DHT22;13961;51.178;4.448;2022-10-16T10:43:20;19.20;99.90
25949;DHT22;13961;51.178;4.448;2022-10-16T10:49:45;18.70;99.90
25949;DHT22;13961;51.178;4.448;2022-10-16T10:55:45;19.30;99.90
25949;DHT22;13961;51.178;4.448;2022-10-16T11:01:54;19.90;99.90
25949;DHT22;13961;51.178;4.448;2022-10-16T11:08:00;20.10;99.90
25949;DHT22;13961;51.178;4.448;2022-10-16T11:14:19;20.60;99.90
25949;DHT22;13961;51.178;4.448;2022-10-16T11:20:13;20.50;99.90
25949;DHT22;13961;51.178;4.448;2022-10-16T11:26:04;20.90;99.90
25949;DHT22;13961;51.178;4.448;2022-10-16T11:32:00;21.10;99.90
25949;DHT22;13961;51.178;4.448;2022-10-16T11:37:53;20.70;99.90
25949;DHT22;13961;51.178;4.448;2022-10-16T11:43:48;20.70;99.90
25949;DHT22;13961;51.178;4.448;2022-10-16T11:49:39;20.40;99.90
25949;DHT22;13961;51.178;4.448;2022-10-16T11:55:31;21.10;99.90
25949;DHT22;13961;51.178;4.448;2022-10-16T12:11:34;21.60;99.90
25949;DHT22;13961;51.178;4.448;2022-10-16T12:17:34;21.20;99.90
25949;DHT22;13961;51.178;4.448;2022-10-16T12:23:21;20.30;99.90
25949;DHT22;13961;51.178;4.448;2022-10-16T12:29:21;20.60;99.90
25949;DHT22;13961;51.178;4.448;2022-10-16T12:35:26;20.50;99.90
25949;DHT22;13961;51.178;4.448;2022-10-16T12:37:53;20.80;99.90
25949;DHT22;13961;51.178;4.448;2022-10-16T12:43:46;20.30;99.90
25949;DHT22;13961;51.178;4.448;2022-10-16T12:49:37;20.40;99.90
25949;DHT22;13961;51.178;4.448;2022-10-16T12:55:34;20.80;99.90
25949;DHT22;13961;51.178;4.448;2022-10-16T13:31:45;21.20;99.90
25949;DHT22;13961;51.178;4.448;2022-10-16T13:37:33;21.60;99.90
25949;DHT22;13961;51.178;4.448;2022-10-16T13:50:10;20.60;99.90
25949;DHT22;13961;51.178;4.448;2022-10-16T13:55:58;20.60;99.90
25949;DHT22;13961;51.178;4.448;2022-10-16T14:01:47;21.00;99.90
25949;DHT22;13961;51.178;4.448;2022-10-16T14:07:35;21.30;99.90
25949;DHT22;13961;51.178;4.448;2022-10-16T14:13:43;21.00;99.90
25949;DHT22;13961;51.178;4.448;2022-10-16T14:19:31;20.90;99.90
25949;DHT22;13961;51.178;4.448;2022-10-16T14:37:55;20.60;99.90
25949;DHT22;13961;51.178;4.448;2022-10-16T14:43:43;20.40;99.90
25949;DHT22;13961;51.178;4.448;2022-10-16T14:49:31;20.60;99.90
25949;DHT22;13961;51.178;4.448;2022-10-16T14:55:19;20.60;99.90
25949;DHT22;13961;51.178;4.448;2022-10-16T15:01:08;20.20;99.90
25949;DHT22;13961;51.178;4.448;2022-10-16T15:06:55;19.90;99.90
25949;DHT22;13961;51.178;4.448;2022-10-16T15:12:43;20.10;99.90
25949;DHT22;13961;51.178;4.448;2022-10-16T15:18:31;20.10;99.90
25949;DHT22;13961;51.178;4.448;2022-10-16T15:24:19;19.70;99.90
25949;DHT22;13961;51.178;4.448;2022-10-16T15:30:06;19.80;99.90
25949;DHT22;13961;51.178;4.448;2022-10-16T15:35:54;20.00;99.90
25949;DHT22;13961;51.178;4.448;2022-10-16T15:41:42;19.70;99.90
25949;DHT22;13961;51.178;4.448;2022-10-16T15:47:30;19.70;99.90
25949;DHT22;13961;51.178;4.448;2022-10-16T15:53:17;19.80;99.90
25949;DHT22;13961;51.178;4.448;2022-10-16T15:59:05;19.70;99.90
25949;DHT22;13961;51.178;4.448;2022-10-16T16:04:53;19.90;99.90
25949;DHT22;13961;51.178;4.448;2022-10-16T16:10:40;19.90;99.90
25949;DHT22;13961;51.178;4.448;2022-10-16T16:16:28;19.50;99.90
25949;DHT22;13961;51.178;4.448;2022-10-16T16:22:16;19.60;99.90
25949;DHT22;13961;51.178;4.448;2022-10-16T16:28:03;19.60;99.90
25949;DHT22;13961;51.178;4.448;2022-10-16T16:33:51;19.50;99.90
25949;DHT22;13961;51.178;4.448;2022-10-16T16:39:38;19.40;99.90
25949;DHT22;13961;51.178;4.448;2022-10-16T16:45:26;19.30;99.90
25949;DHT22;13961;51.178;4.448;2022-10-16T16:51:17;19.00;99.90
25949;DHT22;13961;51.178;4.448;2022-10-16T16:57:06;19.00;99.90
25949;DHT22;13961;51.178;4.448;2022-10-16T17:02:54;18.70;99.90
25949;DHT22;13961;51.178;4.448;2022-10-16T17:08:42;18.80;99.90
25949;DHT22;13961;51.178;4.448;2022-10-16T17:14:29;18.90;99.90
25949;DHT22;13961;51.178;4.448;2022-10-16T17:20:17;19.10;99.90
25949;DHT22;13961;51.178;4.448;2022-10-16T17:26:05;18.70;99.90
25949;DHT22;13961;51.178;4.448;2022-10-16T17:31:55;18.90;99.90
25949;DHT22;13961;51.178;4.448;2022-10-16T17:37:43;18.60;99.90
25949;DHT22;13961;51.178;4.448;2022-10-16T17:43:31;18.80;99.90
25949;DHT22;13961;51.178;4.448;2022-10-16T17:49:19;18.70;99.90
25949;DHT22;13961;51.178;4.448;2022-10-16T17:55:07;18.70;99.90
25949;DHT22;13961;51.178;4.448;2022-10-16T18:00:55;18.50;99.90
25949;DHT22;13961;51.178;4.448;2022-10-16T18:06:44;17.90;99.90
25949;DHT22;13961;51.178;4.448;2022-10-16T18:12:32;17.30;99.90
25949;DHT22;13961;51.178;4.448;2022-10-16T18:18:20;17.50;99.90
25949;DHT22;13961;51.178;4.448;2022-10-16T18:24:08;17.80;99.90
25949;DHT22;13961;51.178;4.448;2022-10-16T18:29:55;17.80;99.90
25949;DHT22;13961;51.178;4.448;2022-10-16T18:35:43;17.30;99.90
25949;DHT22;13961;51.178;4.448;2022-10-16T18:41:31;17.50;99.90
25949;DHT22;13961;51.178;4.448;2022-10-16T18:47:19;17.70;99.90
25949;DHT22;13961;51.178;4.448;2022-10-16T18:53:06;17.80;99.90
25949;DHT22;13961;51.178;4.448;2022-10-16T18:58:54;17.60;99.90
25949;DHT22;13961;51.178;4.448;2022-10-16T19:04:45;17.10;99.90
25949;DHT22;13961;51.178;4.448;2022-10-16T19:10:35;17.20;99.90
25949;DHT22;13961;51.178;4.448;2022-10-16T19:16:25;17.40;99.90
25949;DHT22;13961;51.178;4.448;2022-10-16T19:22:17;17.40;99.90
25949;DHT22;13961;51.178;4.448;2022-10-16T19:28:16;17.00;99.90
25949;DHT22;13961;51.178;4.448;2022-10-16T19:34:04;17.20;99.90
25949;DHT22;13961;51.178;4.448;2022-10-16T19:39:53;17.20;99.90
25949;DHT22;13961;51.178;4.448;2022-10-16T19:45:41;17.30;99.90
25949;DHT22;13961;51.178;4.448;2022-10-16T19:48:07;17.20;99.90
25949;DHT22;13961;51.178;4.448;2022-10-16T19:53:57;17.20;99.90
25949;DHT22;13961;51.178;4.448;2022-10-16T19:59:45;17.10;99.90
25949;DHT22;13961;51.178;4.448;2022-10-16T20:05:32;17.10;99.90
25949;DHT22;13961;51.178;4.448;2022-10-16T20:11:24;17.10;99.90
25949;DHT22;13961;51.178;4.448;2022-10-16T20:17:12;16.90;99.90
25949;DHT22;13961;51.178;4.448;2022-10-16T20:22:59;17.00;99.90
25949;DHT22;13961;51.178;4.448;2022-10-16T20:28:48;17.20;99.90
25949;DHT22;13961;51.178;4.448;2022-10-16T20:34:35;17.10;99.90
25949;DHT22;13961;51.178;4.448;2022-10-16T20:40:23;17.00;99.90
25949;DHT22;13961;51.178;4.448;2022-10-16T20:46:12;16.90;99.90
25949;DHT22;13961;51.178;4.448;2022-10-16T20:52:00;17.10;99.90
25949;DHT22;13961;51.178;4.448;2022-10-16T20:57:48;17.00;99.90
25949;DHT22;13961;51.178;4.448;2022-10-16T21:03:36;16.80;99.90
25949;DHT22;13961;51.178;4.448;2022-10-16T21:09:24;16.70;99.90
25949;DHT22;13961;51.178;4.448;2022-10-16T21:15:12;16.60;99.90
25949;DHT22;13961;51.178;4.448;2022-10-16T21:20:59;16.50;99.90
25949;DHT22;13961;51.178;4.448;2022-10-16T21:26:53;16.50;99.90
25949;DHT22;13961;51.178;4.448;2022-10-16T21:32:40;16.40;99.90
25949;DHT22;13961;51.178;4.448;2022-10-16T21:38:28;16.40;99.90
25949;DHT22;13961;51.178;4.448;2022-10-16T21:44:17;16.60;99.90
25949;DHT22;13961;51.178;4.448;2022-10-16T21:50:06;16.60;99.90
25949;DHT22;13961;51.178;4.448;2022-10-16T21:55:53;16.70;99.90
25949;DHT22;13961;51.178;4.448;2022-10-16T22:01:42;16.90;99.90
25949;DHT22;13961;51.178;4.448;2022-10-16T22:07:29;17.00;99.90
25949;DHT22;13961;51.178;4.448;2022-10-16T22:13:17;16.90;99.90
25949;DHT22;13961;51.178;4.448;2022-10-16T22:19:05;16.90;99.90
25949;DHT22;13961;51.178;4.448;2022-10-16T22:24:55;16.80;99.90
25949;DHT22;13961;51.178;4.448;2022-10-16T22:30:43;16.70;99.90
25949;DHT22;13961;51.178;4.448;2022-10-16T22:36:32;16.30;99.90
25949;DHT22;13961;51.178;4.448;2022-10-16T22:42:20;16.00;99.90
25949;DHT22;13961;51.178;4.448;2022-10-16T22:48:08;16.20;99.90
25949;DHT22;13961;51.178;4.448;2022-10-16T22:50:33;16.20;99.90
25949;DHT22;13961;51.178;4.448;2022-10-16T22:56:21;16.20;99.90
25949;DHT22;13961;51.178;4.448;2022-10-16T23:02:08;16.00;99.90
25949;DHT22;13961;51.178;4.448;2022-10-16T23:07:56;16.10;99.90
25949;DHT22;13961;51.178;4.448;2022-10-16T23:13:44;16.00;99.90
25949;DHT22;13961;51.178;4.448;2022-10-16T23:19:31;15.90;99.90
25949;DHT22;13961;51.178;4.448;2022-10-16T23:25:19;16.20;99.90
25949;DHT22;13961;51.178;4.448;2022-10-16T23:31:07;16.20;99.90
25949;DHT22;13961;51.178;4.448;2022-10-16T23:36:55;16.00;99.90
25949;DHT22;13961;51.178;4.448;2022-10-16T23:42:42;16.00;99.90
25949;DHT22;13961;51.178;4.448;2022-10-16T23:48:30;16.10;99.90
25949;DHT22;13961;51.178;4.448;2022-10-16T23:54:18;16.20;99.90
